sensor_id;sensor_type;location;lat;lon;timestamp;temperature;humidity
20504;DHT22;10410;51.046;6.980;2023-09-12T00:04:36;21.70;99.90
20504;DHT22;10410;51.046;6.980;2023-09-12T00:11:37;21.60;99.90
20504;DHT22;10410;51.046;6.980;2023-09-12T00:18:38;21.40;99.90
20504;DHT22;10410;51.046;6.980;2023-09-12T00:25:38;21.30;99.90
20504;DHT22;10410;51.046;6.980;2023-09-12T00:32:39;21.10;99.90
20504;DHT22;10410;51.046;6.980;2023-09-12T00:39:39;21.10;99.90
20504;DHT22;10410;51.046;6.980;2023-09-12T00:46:40;21.00;99.90
20504;DHT22;10410;51.046;6.980;2023-09-12T00:53:42;20.90;99.90
20504;DHT22;10410;51.046;6.980;2023-09-12T01:00:43;20.80;99.90
20504;DHT22;10410;51.046;6.980;2023-09-12T01:07:44;20.70;99.90
20504;DHT22;10410;51.046;6.980;2023-09-12T01:14:45;20.60;99.90
20504;DHT22;10410;51.046;6.980;2023-09-12T01:22:03;20.40;99.90
20504;DHT22;10410;51.046;6.980;2023-09-12T01:29:09;20.40;99.90
20504;DHT22;10410;51.046;6.980;2023-09-12T01:36:13;20.20;99.90
20504;DHT22;10410;51.046;6.980;2023-09-12T01:43:16;20.20;99.90
20504;DHT22;10410;51.046;6.980;2023-09-12T01:50:17;20.00;99.90
20504;DHT22;10410;51.046;6.980;2023-09-12T01:57:19;19.90;99.90
20504;DHT22;10410;51.046;6.980;2023-09-12T02:04:23;19.90;99.90
20504;DHT22;10410;51.046;6.980;2023-09-12T02:11:26;20.00;99.90
20504;DHT22;10410;51.046;6.980;2023-09-12T02:18:27;20.10;99.90
20504;DHT22;10410;51.046;6.980;2023-09-12T02:25:27;20.10;99.90
20504;DHT22;10410;51.046;6.980;2023-09-12T02:32:28;20.00;99.90
20504;DHT22;10410;51.046;6.980;2023-09-12T02:39:28;20.00;99.90
20504;DHT22;10410;51.046;6.980;2023-09-12T02:46:29;19.90;99.90
20504;DHT22;10410;51.046;6.980;2023-09-12T02:53:29;19.90;99.90
20504;DHT22;10410;51.046;6.980;2023-09-12T03:00:30;19.90;99.90
20504;DHT22;10410;51.046;6.980;2023-09-12T03:07:30;19.80;99.90
20504;DHT22;10410;51.046;6.980;2023-09-12T03:14:32;19.80;99.90
20504;DHT22;10410;51.046;6.980;2023-09-12T03:21:32;19.80;99.90
20504;DHT22;10410;51.046;6.980;2023-09-12T03:28:33;19.70;99.90
20504;DHT22;10410;51.046;6.980;2023-09-12T03:35:34;19.70;99.90
20504;DHT22;10410;51.046;6.980;2023-09-12T03:42:35;19.70;99.90
20504;DHT22;10410;51.046;6.980;2023-09-12T03:49:42;19.70;99.90
20504;DHT22;10410;51.046;6.980;2023-09-12T03:56:43;19.70;99.90
20504;DHT22;10410;51.046;6.980;2023-09-12T04:03:46;19.70;99.90
20504;DHT22;10410;51.046;6.980;2023-09-12T04:10:48;19.80;99.90
20504;DHT22;10410;51.046;6.980;2023-09-12T04:17:49;19.90;99.90
20504;DHT22;10410;51.046;6.980;2023-09-12T04:24:49;19.90;99.90
20504;DHT22;10410;51.046;6.980;2023-09-12T04:31:50;19.90;99.90
20504;DHT22;10410;51.046;6.980;2023-09-12T04:38:53;20.00;99.90
20504;DHT22;10410;51.046;6.980;2023-09-12T04:45:53;20.10;99.90
20504;DHT22;10410;51.046;6.980;2023-09-12T04:52:54;20.10;99.90
20504;DHT22;10410;51.046;6.980;2023-09-12T04:59:54;20.10;99.90
20504;DHT22;10410;51.046;6.980;2023-09-12T05:06:55;20.10;99.90
20504;DHT22;10410;51.046;6.980;2023-09-12T05:13:55;20.20;99.90
20504;DHT22;10410;51.046;6.980;2023-09-12T05:20:56;20.20;99.90
20504;DHT22;10410;51.046;6.980;2023-09-12T05:27:57;20.20;99.90
20504;DHT22;10410;51.046;6.980;2023-09-12T05:34:57;20.10;99.90
20504;DHT22;10410;51.046;6.980;2023-09-12T05:42:17;20.00;99.90
20504;DHT22;10410;51.046;6.980;2023-09-12T05:49:21;20.00;99.90
20504;DHT22;10410;51.046;6.980;2023-09-12T05:56:21;20.10;99.90
20504;DHT22;10410;51.046;6.980;2023-09-12T06:03:22;20.20;99.90
20504;DHT22;10410;51.046;6.980;2023-09-12T06:10:23;20.30;99.90
20504;DHT22;10410;51.046;6.980;2023-09-12T06:17:24;20.50;99.90
20504;DHT22;10410;51.046;6.980;2023-09-12T06:24:25;20.60;99.90
20504;DHT22;10410;51.046;6.980;2023-09-12T06:31:26;20.60;99.90
20504;DHT22;10410;51.046;6.980;2023-09-12T06:38:27;20.70;99.90
20504;DHT22;10410;51.046;6.980;2023-09-12T06:45:27;20.70;99.90
20504;DHT22;10410;51.046;6.980;2023-09-12T06:52:28;20.70;99.90
20504;DHT22;10410;51.046;6.980;2023-09-12T06:59:28;20.90;99.90
20504;DHT22;10410;51.046;6.980;2023-09-12T07:06:29;21.10;99.90
20504;DHT22;10410;51.046;6.980;2023-09-12T07:13:29;21.30;99.90
20504;DHT22;10410;51.046;6.980;2023-09-12T07:20:30;21.50;99.90
20504;DHT22;10410;51.046;6.980;2023-09-12T07:27:30;21.80;99.90
20504;DHT22;10410;51.046;6.980;2023-09-12T07:34:31;22.00;99.90
20504;DHT22;10410;51.046;6.980;2023-09-12T07:41:31;22.20;99.90
20504;DHT22;10410;51.046;6.980;2023-09-12T07:48:32;22.30;99.90
20504;DHT22;10410;51.046;6.980;2023-09-12T07:55:36;22.40;99.90
20504;DHT22;10410;51.046;6.980;2023-09-12T08:02:45;22.50;99.90
20504;DHT22;10410;51.046;6.980;2023-09-12T08:09:55;22.60;99.90
20504;DHT22;10410;51.046;6.980;2023-09-12T08:16:56;22.60;99.90
20504;DHT22;10410;51.046;6.980;2023-09-12T08:23:56;22.70;99.90
20504;DHT22;10410;51.046;6.980;2023-09-12T08:30:57;23.00;99.90
20504;DHT22;10410;51.046;6.980;2023-09-12T08:37:58;23.30;99.90
20504;DHT22;10410;51.046;6.980;2023-09-12T08:44:58;23.40;99.90
20504;DHT22;10410;51.046;6.980;2023-09-12T08:51:59;23.60;99.90
20504;DHT22;10410;51.046;6.980;2023-09-12T08:59:00;23.60;99.90
20504;DHT22;10410;51.046;6.980;2023-09-12T09:06:02;23.70;99.90
20504;DHT22;10410;51.046;6.980;2023-09-12T09:13:03;23.80;99.90
20504;DHT22;10410;51.046;6.980;2023-09-12T09:20:04;23.80;99.90
20504;DHT22;10410;51.046;6.980;2023-09-12T09:27:09;23.60;99.90
20504;DHT22;10410;51.046;6.980;2023-09-12T09:34:13;23.60;99.90
20504;DHT22;10410;51.046;6.980;2023-09-12T09:41:20;23.80;99.90
20504;DHT22;10410;51.046;6.980;2023-09-12T09:48:24;23.90;99.90
20504;DHT22;10410;51.046;6.980;2023-09-12T09:55:27;23.90;99.90
20504;DHT22;10410;51.046;6.980;2023-09-12T10:02:28;23.90;99.90
20504;DHT22;10410;51.046;6.980;2023-09-12T10:09:30;23.70;99.90
20504;DHT22;10410;51.046;6.980;2023-09-12T10:16:34;23.70;99.90
20504;DHT22;10410;51.046;6.980;2023-09-12T10:23:39;23.80;99.90
20504;DHT22;10410;51.046;6.980;2023-09-12T10:30:43;23.90;99.90
20504;DHT22;10410;51.046;6.980;2023-09-12T10:37:45;24.00;99.90
20504;DHT22;10410;51.046;6.980;2023-09-12T10:44:46;24.20;99.90
20504;DHT22;10410;51.046;6.980;2023-09-12T10:51:47;24.40;99.90
20504;DHT22;10410;51.046;6.980;2023-09-12T11:06:04;24.80;99.90
20504;DHT22;10410;51.046;6.980;2023-09-12T11:13:05;24.90;99.90
20504;DHT22;10410;51.046;6.980;2023-09-12T11:20:17;24.90;99.90
20504;DHT22;10410;51.046;6.980;2023-09-12T11:27:17;25.10;99.90
20504;DHT22;10410;51.046;6.980;2023-09-12T11:34:18;25.10;99.90
20504;DHT22;10410;51.046;6.980;2023-09-12T11:41:41;25.30;99.90
20504;DHT22;10410;51.046;6.980;2023-09-12T11:48:41;25.40;99.90
20504;DHT22;10410;51.046;6.980;2023-09-12T11:55:50;25.50;99.90
20504;DHT22;10410;51.046;6.980;2023-09-12T12:02:53;25.70;99.90
20504;DHT22;10410;51.046;6.980;2023-09-12T12:09:53;25.80;99.90
20504;DHT22;10410;51.046;6.980;2023-09-12T12:16:53;25.70;99.90
20504;DHT22;10410;51.046;6.980;2023-09-12T12:24:01;25.90;99.90
20504;DHT22;10410;51.046;6.980;2023-09-12T12:31:02;25.90;99.90
20504;DHT22;10410;51.046;6.980;2023-09-12T12:38:02;25.90;99.90
20504;DHT22;10410;51.046;6.980;2023-09-12T12:52:11;26.40;99.90
20504;DHT22;10410;51.046;6.980;2023-09-12T12:59:12;26.50;99.90
20504;DHT22;10410;51.046;6.980;2023-09-12T13:06:13;26.50;99.90
20504;DHT22;10410;51.046;6.980;2023-09-12T13:13:14;26.50;99.90
20504;DHT22;10410;51.046;6.980;2023-09-12T13:20:15;26.80;99.90
20504;DHT22;10410;51.046;6.980;2023-09-12T13:27:15;26.90;99.90
20504;DHT22;10410;51.046;6.980;2023-09-12T13:34:15;26.70;99.90
20504;DHT22;10410;51.046;6.980;2023-09-12T13:41:17;26.90;99.90
20504;DHT22;10410;51.046;6.980;2023-09-12T13:48:17;27.50;99.90
20504;DHT22;10410;51.046;6.980;2023-09-12T13:55:18;28.00;99.90
20504;DHT22;10410;51.046;6.980;2023-09-12T14:02:20;28.10;99.90
20504;DHT22;10410;51.046;6.980;2023-09-12T14:09:21;28.20;99.90
20504;DHT22;10410;51.046;6.980;2023-09-12T14:16:26;28.60;99.90
20504;DHT22;10410;51.046;6.980;2023-09-12T14:23:26;28.70;99.90
20504;DHT22;10410;51.046;6.980;2023-09-12T14:30:27;28.60;99.90
20504;DHT22;10410;51.046;6.980;2023-09-12T14:37:35;28.60;99.90
20504;DHT22;10410;51.046;6.980;2023-09-12T14:44:35;29.00;99.90
20504;DHT22;10410;51.046;6.980;2023-09-12T14:51:36;29.40;99.90
20504;DHT22;10410;51.046;6.980;2023-09-12T14:58:36;29.20;99.90
20504;DHT22;10410;51.046;6.980;2023-09-12T15:05:37;28.50;99.90
20504;DHT22;10410;51.046;6.980;2023-09-12T15:12:37;28.00;99.90
20504;DHT22;10410;51.046;6.980;2023-09-12T15:19:38;27.60;99.90
20504;DHT22;10410;51.046;6.980;2023-09-12T15:26:38;27.30;99.90
20504;DHT22;10410;51.046;6.980;2023-09-12T15:33:39;27.20;99.90
20504;DHT22;10410;51.046;6.980;2023-09-12T15:40:39;27.00;99.90
20504;DHT22;10410;51.046;6.980;2023-09-12T15:47:40;27.00;99.90
20504;DHT22;10410;51.046;6.980;2023-09-12T15:54:40;27.10;99.90
20504;DHT22;10410;51.046;6.980;2023-09-12T16:01:41;27.40;99.90
20504;DHT22;10410;51.046;6.980;2023-09-12T16:08:41;27.30;99.90
20504;DHT22;10410;51.046;6.980;2023-09-12T16:15:42;26.90;99.90
20504;DHT22;10410;51.046;6.980;2023-09-12T16:22:43;26.50;99.90
20504;DHT22;10410;51.046;6.980;2023-09-12T16:29:43;26.30;99.90
20504;DHT22;10410;51.046;6.980;2023-09-12T16:36:43;26.20;99.90
20504;DHT22;10410;51.046;6.980;2023-09-12T16:43:44;26.00;99.90
20504;DHT22;10410;51.046;6.980;2023-09-12T16:50:45;25.70;99.90
20504;DHT22;10410;51.046;6.980;2023-09-12T16:57:45;25.50;99.90
20504;DHT22;10410;51.046;6.980;2023-09-12T17:04:46;25.30;99.90
20504;DHT22;10410;51.046;6.980;2023-09-12T17:11:46;25.10;99.90
20504;DHT22;10410;51.046;6.980;2023-09-12T17:18:47;24.90;99.90
20504;DHT22;10410;51.046;6.980;2023-09-12T17:25:47;24.80;99.90
20504;DHT22;10410;51.046;6.980;2023-09-12T17:32:48;24.70;99.90
20504;DHT22;10410;51.046;6.980;2023-09-12T17:39:49;24.50;99.90
20504;DHT22;10410;51.046;6.980;2023-09-12T17:46:51;24.30;99.90
20504;DHT22;10410;51.046;6.980;2023-09-12T17:53:51;24.10;99.90
20504;DHT22;10410;51.046;6.980;2023-09-12T18:00:59;23.90;99.90
20504;DHT22;10410;51.046;6.980;2023-09-12T18:08:00;24.10;99.90
20504;DHT22;10410;51.046;6.980;2023-09-12T18:15:00;23.90;99.90
20504;DHT22;10410;51.046;6.980;2023-09-12T18:22:01;23.70;99.90
20504;DHT22;10410;51.046;6.980;2023-09-12T18:29:01;23.50;99.90
20504;DHT22;10410;51.046;6.980;2023-09-12T18:36:04;23.30;99.90
20504;DHT22;10410;51.046;6.980;2023-09-12T18:43:04;23.00;99.90
20504;DHT22;10410;51.046;6.980;2023-09-12T18:50:07;22.80;99.90
20504;DHT22;10410;51.046;6.980;2023-09-12T18:57:11;22.40;99.90
20504;DHT22;10410;51.046;6.980;2023-09-12T19:04:28;22.20;99.90
20504;DHT22;10410;51.046;6.980;2023-09-12T19:11:34;22.00;99.90
20504;DHT22;10410;51.046;6.980;2023-09-12T19:18:35;21.90;99.90
20504;DHT22;10410;51.046;6.980;2023-09-12T19:25:35;21.50;99.90
20504;DHT22;10410;51.046;6.980;2023-09-12T19:32:38;21.10;99.90
20504;DHT22;10410;51.046;6.980;2023-09-12T19:39:40;20.80;99.90
20504;DHT22;10410;51.046;6.980;2023-09-12T19:46:40;20.40;99.90
20504;DHT22;10410;51.046;6.980;2023-09-12T19:53:41;20.20;99.90
20504;DHT22;10410;51.046;6.980;2023-09-12T20:00:42;20.10;99.90
20504;DHT22;10410;51.046;6.980;2023-09-12T20:07:43;20.10;99.90
20504;DHT22;10410;51.046;6.980;2023-09-12T20:14:44;20.10;99.90
20504;DHT22;10410;51.046;6.980;2023-09-12T20:21:45;20.10;99.90
20504;DHT22;10410;51.046;6.980;2023-09-12T20:28:45;20.10;99.90
20504;DHT22;10410;51.046;6.980;2023-09-12T20:35:46;20.10;99.90
20504;DHT22;10410;51.046;6.980;2023-09-12T20:42:46;20.10;99.90
20504;DHT22;10410;51.046;6.980;2023-09-12T20:49:49;20.20;99.90
20504;DHT22;10410;51.046;6.980;2023-09-12T20:56:59;20.10;99.90
20504;DHT22;10410;51.046;6.980;2023-09-12T21:04:00;20.20;99.90
20504;DHT22;10410;51.046;6.980;2023-09-12T21:11:00;20.20;99.90
20504;DHT22;10410;51.046;6.980;2023-09-12T21:18:01;20.10;99.90
20504;DHT22;10410;51.046;6.980;2023-09-12T21:25:02;20.00;99.90
20504;DHT22;10410;51.046;6.980;2023-09-12T21:32:03;19.70;99.90
20504;DHT22;10410;51.046;6.980;2023-09-12T21:39:04;19.60;99.90
20504;DHT22;10410;51.046;6.980;2023-09-12T21:46:05;19.50;99.90
20504;DHT22;10410;51.046;6.980;2023-09-12T21:53:05;19.30;99.90
20504;DHT22;10410;51.046;6.980;2023-09-12T22:00:06;19.20;99.90
20504;DHT22;10410;51.046;6.980;2023-09-12T22:07:23;19.00;99.90
20504;DHT22;10410;51.046;6.980;2023-09-12T22:14:24;19.00;99.90
20504;DHT22;10410;51.046;6.980;2023-09-12T22:21:24;18.90;99.90
20504;DHT22;10410;51.046;6.980;2023-09-12T22:28:24;18.70;99.90
20504;DHT22;10410;51.046;6.980;2023-09-12T22:35:26;18.60;99.90
20504;DHT22;10410;51.046;6.980;2023-09-12T22:42:26;18.50;99.90
20504;DHT22;10410;51.046;6.980;2023-09-12T22:49:27;18.50;99.90
20504;DHT22;10410;51.046;6.980;2023-09-12T22:56:28;18.40;99.90
20504;DHT22;10410;51.046;6.980;2023-09-12T23:03:28;18.30;99.90
20504;DHT22;10410;51.046;6.980;2023-09-12T23:10:30;18.30;99.90
20504;DHT22;10410;51.046;6.980;2023-09-12T23:17:30;18.20;99.90
20504;DHT22;10410;51.046;6.980;2023-09-12T23:24:31;18.20;99.90
20504;DHT22;10410;51.046;6.980;2023-09-12T23:31:31;18.20;99.90
20504;DHT22;10410;51.046;6.980;2023-09-12T23:38:32;18.20;99.90
20504;DHT22;10410;51.046;6.980;2023-09-12T23:45:32;18.30;99.90
20504;DHT22;10410;51.046;6.980;2023-09-12T23:52:33;18.30;99.90
20504;DHT22;10410;51.046;6.980;2023-09-12T23:59:34;18.30;99.90
